sensor_id;sensor_type;location;lat;lon;timestamp;pressure;altitude;pressure_sealevel;temperature;humidity
25156;BME280;21913;52.456;13.634;2023-04-19T00:00:25;101404.06;;;12.49;66.39
25156;BME280;21913;52.456;13.634;2023-04-19T00:05:27;101394.56;;;12.50;66.19
25156;BME280;21913;52.456;13.634;2023-04-19T00:10:29;101395.41;;;12.49;66.27
25156;BME280;21913;52.456;13.634;2023-04-19T00:15:30;101398.00;;;12.49;66.35
25156;BME280;21913;52.456;13.634;2023-04-19T00:20:32;101396.28;;;12.49;66.28
25156;BME280;21913;52.456;13.634;2023-04-19T00:25:33;101396.28;;;12.49;66.32
25156;BME280;21913;52.456;13.634;2023-04-19T00:30:34;101385.91;;;12.49;66.49
25156;BME280;21913;52.456;13.634;2023-04-19T00:35:36;101390.22;;;12.49;66.33
25156;BME280;21913;52.456;13.634;2023-04-19T00:40:37;101385.91;;;12.49;66.42
25156;BME280;21913;52.456;13.634;2023-04-19T00:45:39;101372.06;;;12.49;66.36
25156;BME280;21913;52.456;13.634;2023-04-19T00:50:42;101373.78;;;12.50;66.41
25156;BME280;21913;52.456;13.634;2023-04-19T00:55:45;101372.94;;;12.49;66.39
25156;BME280;21913;52.456;13.634;2023-04-19T01:00:46;101366.00;;;12.48;66.42
25156;BME280;21913;52.456;13.634;2023-04-19T01:05:48;101370.31;;;12.49;66.25
25156;BME280;21913;52.456;13.634;2023-04-19T01:10:49;101374.66;;;12.50;66.34
25156;BME280;21913;52.456;13.634;2023-04-19T01:15:51;101378.13;;;12.49;66.33
25156;BME280;21913;52.456;13.634;2023-04-19T01:20:54;101372.94;;;12.49;66.48
25156;BME280;21913;52.456;13.634;2023-04-19T01:25:55;101377.25;;;12.50;66.35
25156;BME280;21913;52.456;13.634;2023-04-19T01:30:57;101374.66;;;12.50;66.35
25156;BME280;21913;52.456;13.634;2023-04-19T01:35:59;101372.94;;;12.49;66.22
25156;BME280;21913;52.456;13.634;2023-04-19T01:41:01;101372.06;;;12.50;66.42
25156;BME280;21913;52.456;13.634;2023-04-19T01:46:04;101374.66;;;12.50;66.41
25156;BME280;21913;52.456;13.634;2023-04-19T01:51:06;101365.13;;;12.49;66.35
25156;BME280;21913;52.456;13.634;2023-04-19T01:56:08;101367.72;;;12.49;66.34
25156;BME280;21913;52.456;13.634;2023-04-19T02:01:10;101379.00;;;12.50;66.27
25156;BME280;21913;52.456;13.634;2023-04-19T02:06:12;101374.66;;;12.50;66.38
25156;BME280;21913;52.456;13.634;2023-04-19T02:11:15;101370.31;;;12.49;66.42
25156;BME280;21913;52.456;13.634;2023-04-19T02:16:16;101365.13;;;12.49;66.24
25156;BME280;21913;52.456;13.634;2023-04-19T02:21:18;101366.00;;;12.50;66.34
25156;BME280;21913;52.456;13.634;2023-04-19T02:26:21;101365.13;;;12.49;66.32
25156;BME280;21913;52.456;13.634;2023-04-19T02:31:22;101366.00;;;12.50;66.39
25156;BME280;21913;52.456;13.634;2023-04-19T02:36:23;101362.53;;;12.49;66.33
25156;BME280;21913;52.456;13.634;2023-04-19T02:41:25;101365.13;;;12.49;66.17
25156;BME280;21913;52.456;13.634;2023-04-19T02:46:26;101360.00;;;12.51;66.32
25156;BME280;21913;52.456;13.634;2023-04-19T02:51:28;101362.53;;;12.49;66.33
25156;BME280;21913;52.456;13.634;2023-04-19T02:56:29;101361.66;;;12.49;66.20
25156;BME280;21913;52.456;13.634;2023-04-19T03:01:31;101368.59;;;12.50;66.35
25156;BME280;21913;52.456;13.634;2023-04-19T03:06:37;101365.13;;;12.49;66.18
25156;BME280;21913;52.456;13.634;2023-04-19T03:11:38;101364.28;;;12.49;66.24
25156;BME280;21913;52.456;13.634;2023-04-19T03:16:40;101361.66;;;12.49;66.28
25156;BME280;21913;52.456;13.634;2023-04-19T03:21:41;101365.13;;;12.49;66.19
25156;BME280;21913;52.456;13.634;2023-04-19T03:26:43;101358.22;;;12.50;66.24
25156;BME280;21913;52.456;13.634;2023-04-19T03:31:45;101358.22;;;12.50;66.26
25156;BME280;21913;52.456;13.634;2023-04-19T03:36:47;101346.09;;;12.49;66.20
25156;BME280;21913;52.456;13.634;2023-04-19T03:41:48;101342.66;;;12.50;66.22
25156;BME280;21913;52.456;13.634;2023-04-19T03:46:57;101341.78;;;12.49;66.07
25156;BME280;21913;52.456;13.634;2023-04-19T03:52:02;101341.78;;;12.49;66.22
25156;BME280;21913;52.456;13.634;2023-04-19T03:57:04;101351.31;;;12.50;66.27
25156;BME280;21913;52.456;13.634;2023-04-19T04:02:08;101359.94;;;12.49;66.17
25156;BME280;21913;52.456;13.634;2023-04-19T04:07:10;101355.63;;;12.50;66.16
25156;BME280;21913;52.456;13.634;2023-04-19T04:12:11;101354.75;;;12.49;66.10
25156;BME280;21913;52.456;13.634;2023-04-19T04:17:13;101359.94;;;12.49;66.25
25156;BME280;21913;52.456;13.634;2023-04-19T04:22:16;101351.28;;;12.49;66.07
25156;BME280;21913;52.456;13.634;2023-04-19T04:27:17;101351.28;;;12.49;66.10
25156;BME280;21913;52.456;13.634;2023-04-19T04:32:19;101346.97;;;12.49;66.06
25156;BME280;21913;52.456;13.634;2023-04-19T04:37:20;101357.34;;;12.49;66.17
25156;BME280;21913;52.456;13.634;2023-04-19T04:42:23;101349.56;;;12.48;66.17
25156;BME280;21913;52.456;13.634;2023-04-19T04:47:33;101359.09;;;12.50;65.96
25156;BME280;21913;52.456;13.634;2023-04-19T04:52:38;101364.28;;;12.49;66.00
25156;BME280;21913;52.456;13.634;2023-04-19T04:58:05;101372.06;;;12.49;66.09
25156;BME280;21913;52.456;13.634;2023-04-19T05:03:26;101368.59;;;12.48;65.85
25156;BME280;21913;52.456;13.634;2023-04-19T05:08:31;101373.78;;;12.48;65.93
25156;BME280;21913;52.456;13.634;2023-04-19T05:13:47;101376.38;;;12.48;65.77
25156;BME280;21913;52.456;13.634;2023-04-19T05:18:48;101366.00;;;12.48;65.92
25156;BME280;21913;52.456;13.634;2023-04-19T05:23:50;101363.41;;;12.48;65.90
25156;BME280;21913;52.456;13.634;2023-04-19T05:28:51;101365.13;;;12.49;65.83
25156;BME280;21913;52.456;13.634;2023-04-19T05:34:00;101364.28;;;12.49;65.83
25156;BME280;21913;52.456;13.634;2023-04-19T05:39:02;101374.66;;;12.49;65.94
25156;BME280;21913;52.456;13.634;2023-04-19T05:44:04;101373.78;;;12.48;65.91
25156;BME280;21913;52.456;13.634;2023-04-19T05:49:05;101370.31;;;12.48;65.81
25156;BME280;21913;52.456;13.634;2023-04-19T05:54:19;101361.66;;;12.47;65.78
25156;BME280;21913;52.456;13.634;2023-04-19T05:59:22;101359.06;;;12.47;65.76
25156;BME280;21913;52.456;13.634;2023-04-19T06:04:23;101367.72;;;12.48;65.67
25156;BME280;21913;52.456;13.634;2023-04-19T06:09:25;101355.59;;;12.47;65.68
25156;BME280;21913;52.456;13.634;2023-04-19T06:14:27;101376.38;;;12.48;65.66
25156;BME280;21913;52.456;13.634;2023-04-19T06:19:28;101372.91;;;12.48;65.67
25156;BME280;21913;52.456;13.634;2023-04-19T06:24:30;101371.19;;;12.47;65.60
25156;BME280;21913;52.456;13.634;2023-04-19T06:29:32;101380.69;;;12.48;65.64
25156;BME280;21913;52.456;13.634;2023-04-19T06:34:33;101372.03;;;12.47;65.63
25156;BME280;21913;52.456;13.634;2023-04-19T06:39:35;101382.44;;;12.47;65.62
25156;BME280;21913;52.456;13.634;2023-04-19T06:44:36;101391.09;;;12.48;65.44
25156;BME280;21913;52.456;13.634;2023-04-19T06:49:38;101385.03;;;12.47;65.50
25156;BME280;21913;52.456;13.634;2023-04-19T06:54:40;101385.91;;;12.48;65.49
25156;BME280;21913;52.456;13.634;2023-04-19T06:59:41;101396.28;;;12.48;65.49
25156;BME280;21913;52.456;13.634;2023-04-19T07:04:43;101389.34;;;12.47;65.38
25156;BME280;21913;52.456;13.634;2023-04-19T07:09:44;101395.25;;;12.35;62.94
25156;BME280;21913;52.456;13.634;2023-04-19T07:14:46;101402.97;;;12.32;62.11
25156;BME280;21913;52.456;13.634;2023-04-19T07:19:47;101403.84;;;12.34;62.12
25156;BME280;21913;52.456;13.634;2023-04-19T07:24:49;101399.56;;;12.36;62.11
25156;BME280;21913;52.456;13.634;2023-04-19T07:29:51;101409.13;;;12.38;62.42
25156;BME280;21913;52.456;13.634;2023-04-19T07:34:52;101402.19;;;12.39;62.30
25156;BME280;21913;52.456;13.634;2023-04-19T07:39:54;101392.72;;;12.40;62.09
25156;BME280;21913;52.456;13.634;2023-04-19T07:44:56;101395.31;;;12.41;62.19
25156;BME280;21913;52.456;13.634;2023-04-19T07:49:57;101399.66;;;12.42;62.16
25156;BME280;21913;52.456;13.634;2023-04-19T07:54:58;101395.34;;;12.44;62.28
25156;BME280;21913;52.456;13.634;2023-04-19T08:00:00;101401.47;;;12.46;62.37
25156;BME280;21913;52.456;13.634;2023-04-19T08:05:01;101396.28;;;12.49;62.45
25156;BME280;21913;52.456;13.634;2023-04-19T08:10:05;101398.03;;;12.50;62.21
25156;BME280;21913;52.456;13.634;2023-04-19T08:15:07;101388.53;;;12.51;61.93
25156;BME280;21913;52.456;13.634;2023-04-19T08:20:11;101382.50;;;12.52;61.52
25156;BME280;21913;52.456;13.634;2023-04-19T08:25:13;101375.56;;;12.52;61.55
25156;BME280;21913;52.456;13.634;2023-04-19T08:30:14;101374.28;;;12.21;51.91
25156;BME280;21913;52.456;13.634;2023-04-19T08:35:16;101374.09;;;12.07;49.71
25156;BME280;21913;52.456;13.634;2023-04-19T08:40:17;101372.22;;;11.99;45.51
25156;BME280;21913;52.456;13.634;2023-04-19T08:45:20;101383.44;;;11.96;45.11
25156;BME280;21913;52.456;13.634;2023-04-19T08:50:24;101375.84;;;12.11;47.19
25156;BME280;21913;52.456;13.634;2023-04-19T08:55:32;101364.81;;;12.25;48.83
25156;BME280;21913;52.456;13.634;2023-04-19T09:00:37;101358.88;;;12.33;49.23
25156;BME280;21913;52.456;13.634;2023-04-19T09:05:39;101350.28;;;12.39;50.44
25156;BME280;21913;52.456;13.634;2023-04-19T09:10:51;101341.69;;;12.43;51.98
25156;BME280;21913;52.456;13.634;2023-04-19T09:15:53;101340.00;;;12.45;50.55
25156;BME280;21913;52.456;13.634;2023-04-19T09:20:55;101324.44;;;12.47;50.78
25156;BME280;21913;52.456;13.634;2023-04-19T09:26:00;101315.81;;;12.49;52.29
25156;BME280;21913;52.456;13.634;2023-04-19T09:31:11;101330.56;;;12.52;52.90
25156;BME280;21913;52.456;13.634;2023-04-19T09:41:30;101323.53;;;12.43;50.09
25156;BME280;21913;52.456;13.634;2023-04-19T09:46:35;101317.47;;;12.44;50.86
25156;BME280;21913;52.456;13.634;2023-04-19T09:51:46;101306.16;;;12.39;49.90
25156;BME280;21913;52.456;13.634;2023-04-19T09:56:48;101306.22;;;12.42;49.67
25156;BME280;21913;52.456;13.634;2023-04-19T10:01:53;101300.22;;;12.46;50.54
25156;BME280;21913;52.456;13.634;2023-04-19T10:06:55;101295.91;;;12.50;50.92
25156;BME280;21913;52.456;13.634;2023-04-19T10:12:07;101290.75;;;12.51;51.14
25156;BME280;21913;52.456;13.634;2023-04-19T10:17:16;101287.31;;;12.52;51.79
25156;BME280;21913;52.456;13.634;2023-04-19T10:22:18;101290.78;;;12.54;52.09
25156;BME280;21913;52.456;13.634;2023-04-19T10:27:24;101285.63;;;12.56;52.32
25156;BME280;21913;52.456;13.634;2023-04-19T10:32:30;101278.72;;;12.56;52.61
25156;BME280;21913;52.456;13.634;2023-04-19T10:37:40;101259.66;;;12.56;53.08
25156;BME280;21913;52.456;13.634;2023-04-19T10:43:14;101257.94;;;12.56;53.49
25156;BME280;21913;52.456;13.634;2023-04-19T11:04:01;101225.88;;;12.54;55.15
25156;BME280;21913;52.456;13.634;2023-04-19T11:09:03;101215.50;;;12.53;55.37
25156;BME280;21913;52.456;13.634;2023-04-19T11:14:06;101214.63;;;12.55;55.59
25156;BME280;21913;52.456;13.634;2023-04-19T11:19:08;101203.38;;;12.53;55.81
25156;BME280;21913;52.456;13.634;2023-04-19T11:24:11;101201.66;;;12.54;56.01
25156;BME280;21913;52.456;13.634;2023-04-19T11:29:13;101184.34;;;12.54;56.10
25156;BME280;21913;52.456;13.634;2023-04-19T11:34:14;101173.09;;;12.54;56.48
25156;BME280;21913;52.456;13.634;2023-04-19T11:39:17;101167.91;;;12.54;56.68
25156;BME280;21913;52.456;13.634;2023-04-19T11:44:18;101173.97;;;12.54;56.63
25156;BME280;21913;52.456;13.634;2023-04-19T11:49:30;101167.91;;;12.55;56.91
25156;BME280;21913;52.456;13.634;2023-04-19T11:54:32;101154.06;;;12.53;57.03
25156;BME280;21913;52.456;13.634;2023-04-19T11:59:35;101152.34;;;12.55;57.22
25156;BME280;21913;52.456;13.634;2023-04-19T12:04:38;101155.78;;;12.53;57.26
25156;BME280;21913;52.456;13.634;2023-04-19T12:09:39;101144.53;;;12.54;57.31
25156;BME280;21913;52.456;13.634;2023-04-19T12:14:50;101133.28;;;12.55;57.38
25156;BME280;21913;52.456;13.634;2023-04-19T12:19:52;101138.47;;;12.53;57.42
25156;BME280;21913;52.456;13.634;2023-04-19T12:24:54;101128.97;;;12.52;57.68
25156;BME280;21913;52.456;13.634;2023-04-19T12:29:55;101124.63;;;12.53;57.59
25156;BME280;21913;52.456;13.634;2023-04-19T12:34:57;101122.91;;;12.53;57.52
25156;BME280;21913;52.456;13.634;2023-04-19T12:39:58;101125.50;;;12.53;57.63
25156;BME280;21913;52.456;13.634;2023-04-19T12:45:00;101136.75;;;12.54;57.54
25156;BME280;21913;52.456;13.634;2023-04-19T12:50:01;101119.44;;;12.53;57.42
25156;BME280;21913;52.456;13.634;2023-04-19T12:55:04;101117.72;;;12.53;57.72
25156;BME280;21913;52.456;13.634;2023-04-19T13:00:06;101111.66;;;12.54;57.66
25156;BME280;21913;52.456;13.634;2023-04-19T13:05:07;101095.22;;;12.55;57.81
25156;BME280;21913;52.456;13.634;2023-04-19T13:10:09;101101.28;;;12.54;57.84
25156;BME280;21913;52.456;13.634;2023-04-19T13:15:11;101077.91;;;12.53;57.66
25156;BME280;21913;52.456;13.634;2023-04-19T13:20:12;101078.78;;;12.53;57.97
25156;BME280;21913;52.456;13.634;2023-04-19T13:25:14;101063.19;;;12.55;57.92
25156;BME280;21913;52.456;13.634;2023-04-19T13:30:15;101057.13;;;12.53;57.99
25156;BME280;21913;52.456;13.634;2023-04-19T13:35:17;101046.75;;;12.54;57.97
25156;BME280;21913;52.456;13.634;2023-04-19T13:40:18;101032.91;;;12.54;58.16
25156;BME280;21913;52.456;13.634;2023-04-19T13:45:20;101031.19;;;12.54;58.10
25156;BME280;21913;52.456;13.634;2023-04-19T13:50:21;101023.41;;;12.54;58.19
25156;BME280;21913;52.456;13.634;2023-04-19T13:55:23;101015.59;;;12.54;58.17
25156;BME280;21913;52.456;13.634;2023-04-19T14:00:25;101013.00;;;12.54;58.23
25156;BME280;21913;52.456;13.634;2023-04-19T14:05:26;101004.38;;;12.55;58.25
25156;BME280;21913;52.456;13.634;2023-04-19T14:10:28;100988.78;;;12.55;58.36
25156;BME280;21913;52.456;13.634;2023-04-19T14:15:29;100989.66;;;12.54;58.21
25156;BME280;21913;52.456;13.634;2023-04-19T14:20:31;100982.72;;;12.55;58.53
25156;BME280;21913;52.456;13.634;2023-04-19T14:25:32;100976.72;;;12.56;58.58
25156;BME280;21913;52.456;13.634;2023-04-19T14:30:34;100964.59;;;12.56;58.61
25156;BME280;21913;52.456;13.634;2023-04-19T14:35:35;100974.13;;;12.56;58.53
25156;BME280;21913;52.456;13.634;2023-04-19T14:40:37;100959.41;;;12.56;58.69
25156;BME280;21913;52.456;13.634;2023-04-19T14:45:38;100949.00;;;12.56;58.75
25156;BME280;21913;52.456;13.634;2023-04-19T14:50:40;100952.47;;;12.57;58.79
25156;BME280;21913;52.456;13.634;2023-04-19T14:55:41;100951.63;;;12.56;58.80
25156;BME280;21913;52.456;13.634;2023-04-19T15:00:43;100949.00;;;12.56;58.79
25156;BME280;21913;52.456;13.634;2023-04-19T15:05:44;100941.22;;;12.56;58.92
25156;BME280;21913;52.456;13.634;2023-04-19T15:10:46;100937.75;;;12.56;58.88
25156;BME280;21913;52.456;13.634;2023-04-19T15:15:47;100934.31;;;12.57;58.93
25156;BME280;21913;52.456;13.634;2023-04-19T15:20:49;100936.03;;;12.56;59.01
25156;BME280;21913;52.456;13.634;2023-04-19T15:25:54;100931.72;;;12.57;59.02
25156;BME280;21913;52.456;13.634;2023-04-19T15:31:00;100935.16;;;12.57;59.07
25156;BME280;21913;52.456;13.634;2023-04-19T15:36:02;100944.69;;;12.57;59.06
25156;BME280;21913;52.456;13.634;2023-04-19T15:41:03;100928.25;;;12.56;58.92
25156;BME280;21913;52.456;13.634;2023-04-19T15:46:05;100936.03;;;12.56;59.10
25156;BME280;21913;52.456;13.634;2023-04-19T15:51:07;100951.63;;;12.58;58.94
25156;BME280;21913;52.456;13.634;2023-04-19T15:56:09;100945.56;;;12.57;59.07
25156;BME280;21913;52.456;13.634;2023-04-19T16:01:10;100949.00;;;12.56;58.92
25156;BME280;21913;52.456;13.634;2023-04-19T16:06:12;100939.50;;;12.57;58.92
25156;BME280;21913;52.456;13.634;2023-04-19T16:11:13;100947.28;;;12.57;58.94
25156;BME280;21913;52.456;13.634;2023-04-19T16:16:15;100937.75;;;12.57;58.99
25156;BME280;21913;52.456;13.634;2023-04-19T16:21:16;100942.97;;;12.57;59.40
25156;BME280;21913;52.456;13.634;2023-04-19T16:26:18;100947.28;;;12.57;59.20
25156;BME280;21913;52.456;13.634;2023-04-19T16:31:19;100940.38;;;12.57;59.03
25156;BME280;21913;52.456;13.634;2023-04-19T16:36:21;100945.56;;;12.57;58.99
25156;BME280;21913;52.456;13.634;2023-04-19T16:41:22;100929.13;;;12.57;59.07
25156;BME280;21913;52.456;13.634;2023-04-19T16:46:24;100945.56;;;12.57;59.23
25156;BME280;21913;52.456;13.634;2023-04-19T16:51:25;100937.75;;;12.57;59.19
25156;BME280;21913;52.456;13.634;2023-04-19T16:56:27;100940.38;;;12.57;59.27
25156;BME280;21913;52.456;13.634;2023-04-19T17:01:28;100939.50;;;12.57;59.33
25156;BME280;21913;52.456;13.634;2023-04-19T17:06:30;100939.50;;;12.57;59.28
25156;BME280;21913;52.456;13.634;2023-04-19T17:11:32;100944.69;;;12.57;59.49
25156;BME280;21913;52.456;13.634;2023-04-19T17:16:34;100944.69;;;12.57;59.23
25156;BME280;21913;52.456;13.634;2023-04-19T17:21:35;100933.44;;;12.58;59.20
25156;BME280;21913;52.456;13.634;2023-04-19T17:26:37;100939.50;;;12.57;59.12
25156;BME280;21913;52.456;13.634;2023-04-19T17:31:38;100928.25;;;12.58;59.26
25156;BME280;21913;52.456;13.634;2023-04-19T17:36:40;100937.75;;;12.57;59.16
25156;BME280;21913;52.456;13.634;2023-04-19T17:41:41;100936.03;;;12.56;59.42
25156;BME280;21913;52.456;13.634;2023-04-19T17:46:43;100941.22;;;12.58;59.25
25156;BME280;21913;52.456;13.634;2023-04-19T17:51:44;100931.72;;;12.57;59.25
25156;BME280;21913;52.456;13.634;2023-04-19T17:56:46;100941.22;;;12.58;59.31
25156;BME280;21913;52.456;13.634;2023-04-19T18:01:47;100942.97;;;12.57;59.43
25156;BME280;21913;52.456;13.634;2023-04-19T18:06:49;100933.44;;;12.58;59.34
25156;BME280;21913;52.456;13.634;2023-04-19T18:11:50;100939.50;;;12.58;59.57
25156;BME280;21913;52.456;13.634;2023-04-19T18:16:52;100937.75;;;12.57;59.42
25156;BME280;21913;52.456;13.634;2023-04-19T18:21:53;100949.88;;;12.57;59.54
25156;BME280;21913;52.456;13.634;2023-04-19T18:26:55;100949.88;;;12.58;59.70
25156;BME280;21913;52.456;13.634;2023-04-19T18:31:56;100950.75;;;12.57;59.46
25156;BME280;21913;52.456;13.634;2023-04-19T18:36:58;100962.88;;;12.58;59.51
25156;BME280;21913;52.456;13.634;2023-04-19T18:42:00;100956.81;;;12.58;59.66
25156;BME280;21913;52.456;13.634;2023-04-19T18:47:02;100956.81;;;12.58;59.66
25156;BME280;21913;52.456;13.634;2023-04-19T18:52:05;100962.88;;;12.58;59.65
25156;BME280;21913;52.456;13.634;2023-04-19T18:57:06;100964.59;;;12.58;59.72
25156;BME280;21913;52.456;13.634;2023-04-19T19:02:22;100966.31;;;12.57;59.72
25156;BME280;21913;52.456;13.634;2023-04-19T19:07:24;100968.06;;;12.58;59.75
25156;BME280;21913;52.456;13.634;2023-04-19T19:12:29;100966.31;;;12.59;59.70
25156;BME280;21913;52.456;13.634;2023-04-19T19:17:30;100984.50;;;12.59;59.80
25156;BME280;21913;52.456;13.634;2023-04-19T19:22:32;100978.44;;;12.58;59.87
25156;BME280;21913;52.456;13.634;2023-04-19T19:27:34;100978.44;;;12.58;59.81
25156;BME280;21913;52.456;13.634;2023-04-19T19:32:36;100980.16;;;12.58;59.87
25156;BME280;21913;52.456;13.634;2023-04-19T19:37:38;100978.44;;;12.58;59.95
25156;BME280;21913;52.456;13.634;2023-04-19T19:42:40;100972.38;;;12.59;60.04
25156;BME280;21913;52.456;13.634;2023-04-19T19:47:41;100979.31;;;12.59;60.07
25156;BME280;21913;52.456;13.634;2023-04-19T19:52:46;100975.84;;;12.58;60.03
25156;BME280;21913;52.456;13.634;2023-04-19T19:57:48;100969.78;;;12.59;60.03
25156;BME280;21913;52.456;13.634;2023-04-19T20:03:09;100970.66;;;12.58;60.03
25156;BME280;21913;52.456;13.634;2023-04-19T20:08:12;100974.13;;;12.59;60.11
25156;BME280;21913;52.456;13.634;2023-04-19T20:13:14;100980.16;;;12.58;60.20
25156;BME280;21913;52.456;13.634;2023-04-19T20:18:15;100977.56;;;12.58;60.31
25156;BME280;21913;52.456;13.634;2023-04-19T20:23:18;100971.50;;;12.59;60.13
25156;BME280;21913;52.456;13.634;2023-04-19T20:28:20;100968.91;;;12.59;60.23
25156;BME280;21913;52.456;13.634;2023-04-19T20:33:22;100962.88;;;12.58;60.09
25156;BME280;21913;52.456;13.634;2023-04-19T20:38:24;100962.88;;;12.58;60.16
25156;BME280;21913;52.456;13.634;2023-04-19T20:43:25;100959.41;;;12.58;60.20
25156;BME280;21913;52.456;13.634;2023-04-19T20:48:27;100946.41;;;12.59;60.27
25156;BME280;21913;52.456;13.634;2023-04-19T20:53:28;100944.69;;;12.58;60.34
25156;BME280;21913;52.456;13.634;2023-04-19T20:58:30;100931.72;;;12.58;60.34
25156;BME280;21913;52.456;13.634;2023-04-19T21:03:31;100931.72;;;12.58;60.30
25156;BME280;21913;52.456;13.634;2023-04-19T21:08:33;100936.03;;;12.59;60.36
25156;BME280;21913;52.456;13.634;2023-04-19T21:13:34;100920.47;;;12.59;60.28
25156;BME280;21913;52.456;13.634;2023-04-19T21:18:36;100917.00;;;12.59;60.32
25156;BME280;21913;52.456;13.634;2023-04-19T21:23:37;100926.53;;;12.58;60.28
25156;BME280;21913;52.456;13.634;2023-04-19T21:28:39;100925.66;;;12.59;60.25
25156;BME280;21913;52.456;13.634;2023-04-19T21:33:40;100922.19;;;12.59;60.23
25156;BME280;21913;52.456;13.634;2023-04-19T21:38:42;100923.06;;;12.59;60.31
25156;BME280;21913;52.456;13.634;2023-04-19T21:43:43;100921.31;;;12.58;60.34
25156;BME280;21913;52.456;13.634;2023-04-19T21:48:45;100917.88;;;12.59;60.19
25156;BME280;21913;52.456;13.634;2023-04-19T21:53:46;100911.81;;;12.59;60.22
25156;BME280;21913;52.456;13.634;2023-04-19T21:58:48;100901.41;;;12.59;60.25
25156;BME280;21913;52.456;13.634;2023-04-19T22:03:49;100910.06;;;12.59;60.37
25156;BME280;21913;52.456;13.634;2023-04-19T22:08:51;100902.28;;;12.59;60.29
25156;BME280;21913;52.456;13.634;2023-04-19T22:13:52;100897.09;;;12.59;60.26
25156;BME280;21913;52.456;13.634;2023-04-19T22:18:55;100886.72;;;12.59;60.31
25156;BME280;21913;52.456;13.634;2023-04-19T22:23:57;100891.91;;;12.59;60.29
25156;BME280;21913;52.456;13.634;2023-04-19T22:28:59;100883.25;;;12.59;60.39
25156;BME280;21913;52.456;13.634;2023-04-19T22:34:00;100878.91;;;12.59;60.31
25156;BME280;21913;52.456;13.634;2023-04-19T22:39:02;100886.72;;;12.59;60.38
25156;BME280;21913;52.456;13.634;2023-04-19T22:44:03;100880.66;;;12.59;60.40
25156;BME280;21913;52.456;13.634;2023-04-19T22:49:05;100891.03;;;12.60;60.37
25156;BME280;21913;52.456;13.634;2023-04-19T22:54:06;100878.91;;;12.59;60.27
25156;BME280;21913;52.456;13.634;2023-04-19T22:59:08;100865.06;;;12.60;60.44
25156;BME280;21913;52.456;13.634;2023-04-19T23:04:12;100856.41;;;12.60;60.36
25156;BME280;21913;52.456;13.634;2023-04-19T23:09:14;100850.38;;;12.59;60.42
25156;BME280;21913;52.456;13.634;2023-04-19T23:14:15;100834.78;;;12.59;60.35
25156;BME280;21913;52.456;13.634;2023-04-19T23:19:17;100821.81;;;12.59;60.44
25156;BME280;21913;52.456;13.634;2023-04-19T23:24:18;100806.22;;;12.59;60.39
25156;BME280;21913;52.456;13.634;2023-04-19T23:29:20;100809.69;;;12.60;60.34
25156;BME280;21913;52.456;13.634;2023-04-19T23:34:21;100804.50;;;12.60;60.51
25156;BME280;21913;52.456;13.634;2023-04-19T23:39:23;100787.19;;;12.59;60.53
25156;BME280;21913;52.456;13.634;2023-04-19T23:44:25;100774.22;;;12.60;60.39
25156;BME280;21913;52.456;13.634;2023-04-19T23:49:27;100772.50;;;12.59;60.39
25156;BME280;21913;52.456;13.634;2023-04-19T23:54:28;100755.22;;;12.61;60.61
25156;BME280;21913;52.456;13.634;2023-04-19T23:59:30;100754.31;;;12.59;60.52
